Time;durP1;ratioP1;P1;durP2;ratioP2;P2;SDS_P1;SDS_P2;PMS_P1;PMS_P2;Temp;Humidity;BMP_temperature;BMP_pressure;BME280_temperature;BME280_humidity;BME280_pressure;Samples;Min_cycle;Max_cycle;Signal;HPM_P1;HPM_P2
2021/07/27 00:00:46;;;;;;;3.83;2.80;;;18.40;99.90;;;16.55;100.00;101762.91;3499866;40;100704;-82
2021/07/27 00:03:13;;;;;;;3.42;3.08;;;19.30;99.90;;;16.50;100.00;101762.53;3496605;40;100128;-84
2021/07/27 00:05:40;;;;;;;6.78;3.67;;;19.30;99.90;;;16.47;100.00;101773.66;3481793;40;102132;-82
2021/07/27 00:08:09;;;;;;;5.22;3.45;;;18.30;99.90;;;16.52;100.00;101796.50;3489630;40;100987;-83
2021/07/27 00:10:37;;;;;;;6.03;3.15;;;18.20;99.90;;;16.61;100.00;101785.72;3499342;40;101290;-82
2021/07/27 00:13:05;;;;;;;4.70;3.05;;;18.20;99.90;;;16.43;100.00;101756.94;3500397;40;100610;-82
2021/07/27 00:15:32;;;;;;;4.35;3.10;;;18.30;99.90;;;16.63;100.00;101779.19;3498702;40;100948;-82
2021/07/27 00:18:00;;;;;;;3.95;3.33;;;19.00;99.90;;;16.57;100.00;101731.13;3501327;40;100535;-83
2021/07/27 00:20:28;;;;;;;4.10;3.30;;;18.50;99.90;;;16.64;100.00;101698.94;3500325;40;100797;-84
2021/07/27 00:22:55;;;;;;;4.90;3.20;;;18.30;99.90;;;16.49;100.00;101658.16;3507389;39;100124;-83
2021/07/27 00:25:23;;;;;;;3.75;3.03;;;18.10;99.90;;;16.43;100.00;101638.06;3506725;39;103243;-82
2021/07/27 00:27:50;;;;;;;10.43;3.78;;;18.10;99.90;;;16.46;100.00;101623.34;3495866;40;101468;-83
2021/07/27 00:30:17;;;;;;;5.82;2.88;;;18.10;99.90;;;16.58;100.00;101608.53;3493219;40;100598;-83
2021/07/27 00:32:45;;;;;;;6.90;2.70;;;18.10;99.90;;;16.46;100.00;101572.88;3489165;40;100594;-84
2021/07/27 00:35:14;;;;;;;4.20;2.72;;;18.10;99.90;;;16.58;100.00;101580.66;3488895;40;103016;-83
2021/07/27 00:37:44;;;;;;;7.00;2.65;;;18.10;99.90;;;16.56;100.00;101559.25;3495180;40;102879;-82
2021/07/27 00:40:14;;;;;;;5.13;3.38;;;18.10;99.90;;;16.53;100.00;101544.19;3487057;40;101614;-84
2021/07/27 00:42:47;;;;;;;4.82;2.75;;;18.10;99.90;;;16.43;100.00;101565.13;3493802;40;100106;-82
2021/07/27 00:45:15;;;;;;;5.93;3.85;;;18.10;99.90;;;16.34;100.00;101598.50;3507130;39;102956;-83
2021/07/27 00:47:43;;;;;;;3.47;2.83;;;18.10;99.90;;;16.39;100.00;101639.38;3499608;40;100932;-84
2021/07/27 00:50:12;;;;;;;4.97;3.25;;;18.00;99.90;;;16.41;100.00;101650.03;3499864;40;100776;-82
2021/07/27 00:52:41;;;;;;;5.18;3.00;;;18.00;99.90;;;16.41;100.00;101653.59;3498381;40;99913;-84
2021/07/27 00:55:10;;;;;;;4.35;3.33;;;19.00;99.90;;;16.35;100.00;101664.16;3487592;40;102332;-82
2021/07/27 00:57:39;;;;;;;4.80;3.13;;;18.00;99.90;;;16.39;100.00;101681.75;3499029;40;101514;-84
2021/07/27 01:00:09;;;;;;;6.43;3.60;;;17.90;99.90;;;16.18;100.00;101682.19;3499311;40;100381;-82
2021/07/27 01:02:36;;;;;;;3.85;3.10;;;17.90;99.90;;;16.20;100.00;101696.34;3498752;40;100023;-81
2021/07/27 01:05:05;;;;;;;5.10;2.90;;;17.90;99.90;;;16.27;100.00;101707.38;3491163;40;102789;-83
2021/07/27 01:07:32;;;;;;;3.78;2.75;;;17.90;99.90;;;16.22;100.00;101679.97;3501180;40;100948;-82
2021/07/27 01:09:59;;;;;;;7.57;3.03;;;18.80;99.90;;;16.19;100.00;101620.91;3503582;40;100226;-83
2021/07/27 01:12:26;;;;;;;3.83;3.00;;;17.90;99.90;;;16.30;100.00;101637.66;3491311;39;100514;-84
2021/07/27 01:14:53;;;;;;;3.55;2.90;;;17.90;99.90;;;16.24;100.00;101618.56;3500704;39;100455;-83
2021/07/27 01:17:21;;;;;;;5.32;2.50;;;17.90;99.90;;;16.35;100.00;101621.81;3490128;40;103226;-83
2021/07/27 01:19:55;;;;;;;4.95;3.40;;;17.90;99.90;;;16.32;100.00;101578.91;3500115;40;100396;-83
2021/07/27 01:39:17;;;;;;;3.97;2.78;;;17.80;99.90;;;16.22;100.00;101445.03;3513923;39;103644;-84
2021/07/27 01:44:29;;;;;;;6.45;2.75;;;17.80;99.90;;;16.19;100.00;101485.88;3497405;39;99987;-82
2021/07/27 01:46:56;;;;;;;3.50;3.00;;;17.80;99.90;;;16.19;100.00;101462.44;3507410;39;101805;-84
2021/07/27 01:49:23;;;;;;;7.55;3.15;;;17.80;99.90;;;16.12;100.00;101464.94;3503136;40;101303;-83
2021/07/27 01:51:53;;;;;;;2.72;2.22;;;17.80;99.90;;;16.16;100.00;101474.41;3505105;39;102134;-83
2021/07/27 01:54:29;;;;;;;3.90;3.20;;;17.80;99.90;;;16.15;100.00;101469.16;3492960;40;100053;-83
2021/07/27 01:56:58;;;;;;;5.05;3.35;;;17.70;99.90;;;16.20;100.00;101465.94;3492063;40;101205;-83
2021/07/27 01:59:25;;;;;;;3.83;2.92;;;18.30;99.90;;;16.00;100.00;101446.50;3492135;40;101060;-84
2021/07/27 02:01:52;;;;;;;3.60;2.65;;;17.70;99.90;;;15.95;100.00;101454.28;3486015;40;102522;-82
2021/07/27 02:04:19;;;;;;;7.18;3.72;;;17.70;99.90;;;15.97;100.00;101463.88;3496837;40;100347;-83
2021/07/27 02:06:46;;;;;;;4.70;3.28;;;17.70;99.90;;;16.00;100.00;101468.97;3512212;39;102920;-83
2021/07/27 02:09:14;;;;;;;3.28;2.25;;;18.30;99.90;;;16.03;100.00;101468.63;3497509;40;101498;-83
2021/07/27 02:11:47;;;;;;;3.65;3.22;;;17.60;99.90;;;16.02;100.00;101456.16;3492870;40;100426;-83
2021/07/27 02:14:16;;;;;;;5.15;3.05;;;17.60;99.90;;;16.06;100.00;101445.88;3491883;40;100090;-84
2021/07/27 02:16:43;;;;;;;2.35;2.15;;;17.30;99.90;;;15.99;100.00;101431.31;3492203;40;100241;-84
2021/07/27 02:19:10;;;;;;;4.93;3.13;;;17.60;99.90;;;15.99;100.00;101421.38;3491716;40;100786;-82
2021/07/27 02:21:37;;;;;;;4.30;2.67;;;17.60;99.90;;;15.94;100.00;101375.16;3489171;40;102442;-82
2021/07/27 02:24:05;;;;;;;8.07;3.17;;;17.60;99.90;;;15.89;100.00;101382.06;3510960;39;99983;-84
2021/07/27 02:26:32;;;;;;;3.25;2.05;;;17.50;99.90;;;15.89;100.00;101369.41;3508849;39;103014;-83
2021/07/27 02:29:00;;;;;;;2.53;2.33;;;17.50;99.90;;;15.93;100.00;101356.44;3494980;40;101693;-82
2021/07/27 02:31:32;;;;;;;5.13;2.92;;;17.50;99.90;;;15.90;100.00;101363.00;3492613;40;100897;-81
2021/07/27 02:33:59;;;;;;;2.90;2.63;;;17.40;99.90;;;15.87;100.00;101384.91;3498239;40;100220;-83
2021/07/27 02:36:26;;;;;;;4.45;2.67;;;17.40;99.90;;;15.76;100.00;101387.94;3484737;40;101459;-83
2021/07/27 02:38:53;;;;;;;4.93;2.83;;;17.40;99.90;;;15.68;100.00;101391.47;3481552;40;101905;-82
2021/07/27 02:41:34;;;;;;;4.95;2.78;;;17.30;99.90;;;15.64;100.00;101438.66;3480745;40;100255;-83
2021/07/27 02:44:04;;;;;;;4.53;2.58;;;17.30;99.90;;;15.86;100.00;101466.03;3481817;40;100030;-83
2021/07/27 02:46:31;;;;;;;5.97;3.10;;;17.30;99.90;;;15.92;100.00;101446.50;3494215;40;101007;-84
2021/07/27 02:49:03;;;;;;;5.82;3.55;;;17.30;99.90;;;15.86;100.00;101406.66;3490324;40;103435;-84
2021/07/27 02:51:31;;;;;;;5.38;3.17;;;17.20;99.90;;;15.67;100.00;101405.97;3486799;40;100358;-82
2021/07/27 02:53:58;;;;;;;4.85;2.95;;;17.20;99.90;;;15.77;100.00;101432.78;3482897;40;100199;-82
2021/07/27 02:56:27;;;;;;;4.57;3.55;;;17.10;99.90;;;15.50;100.00;101416.81;3482001;40;100921;-84
2021/07/27 02:58:54;;;;;;;6.43;3.20;;;17.50;99.90;;;15.48;100.00;101452.03;3481240;40;101110;-83
2021/07/27 03:01:22;;;;;;;6.63;3.58;;;17.10;99.90;;;15.53;100.00;101470.44;3481733;40;100413;-84
2021/07/27 03:03:50;;;;;;;3.95;2.90;;;17.10;99.90;;;15.59;100.00;101459.03;3483053;40;100056;-81
2021/07/27 03:06:18;;;;;;;4.80;3.05;;;18.10;99.90;;;15.61;100.00;101430.88;3499368;40;99967;-83
2021/07/27 03:08:50;;;;;;;6.80;3.15;;;17.00;99.90;;;15.71;100.00;101384.88;3487398;40;100649;-82
2021/07/27 03:11:17;;;;;;;3.08;2.78;;;17.70;99.90;;;15.91;100.00;101359.28;3490817;40;102602;-84
2021/07/27 03:13:45;;;;;;;5.45;3.15;;;17.00;99.90;;;15.92;100.00;101311.56;3492665;40;99969;-84
2021/07/27 03:16:18;;;;;;;4.07;3.03;;;17.00;99.90;;;15.75;100.00;101271.06;3483487;40;101470;-83
2021/07/27 03:18:49;;;;;;;4.68;2.92;;;17.00;99.90;;;15.83;100.00;101267.50;3482214;40;101127;-84
2021/07/27 03:21:18;;;;;;;4.85;2.72;;;17.00;99.90;;;15.76;100.00;101269.19;3493278;40;102630;-82
2021/07/27 03:23:45;;;;;;;5.00;3.25;;;17.60;99.90;;;15.62;100.00;101238.31;3486617;40;100166;-82
2021/07/27 03:26:13;;;;;;;3.20;2.53;;;17.00;99.90;;;15.57;100.00;101212.88;3488391;40;101875;-82
2021/07/27 03:28:40;;;;;;;4.30;2.92;;;16.90;99.90;;;15.55;100.00;101223.00;3484471;40;101342;-84
2021/07/27 03:31:07;;;;;;;6.60;3.30;;;17.00;99.90;;;15.52;100.00;101229.53;3484808;40;100355;-82
2021/07/27 03:33:35;;;;;;;3.45;2.85;;;16.90;99.90;;;15.48;100.00;101225.47;3484979;40;99969;-82
2021/07/27 03:36:05;;;;;;;4.20;2.55;;;16.90;99.90;;;15.45;100.00;101213.16;3485441;40;101378;-84
2021/07/27 03:38:32;;;;;;;4.88;3.45;;;16.90;99.90;;;15.42;100.00;101202.72;3482380;40;101337;-81
2021/07/27 03:41:04;;;;;;;5.30;3.10;;;16.90;99.90;;;15.46;100.00;101214.84;3488984;40;100070;-83
2021/07/27 03:43:31;;;;;;;3.10;2.50;;;16.90;99.90;;;15.48;100.00;101230.84;3500501;40;99935;-82
2021/07/27 03:45:58;;;;;;;4.97;3.15;;;16.80;99.90;;;15.51;100.00;101235.09;3494376;40;100135;-84
2021/07/27 03:48:26;;;;;;;3.55;2.22;;;16.90;99.90;;;15.51;100.00;101222.44;3485455;40;101826;-82
2021/07/27 03:50:53;;;;;;;10.43;3.28;;;16.80;99.90;;;15.51;100.00;101205.41;3480393;40;102315;-82
2021/07/27 03:53:22;;;;;;;3.05;2.47;;;17.70;99.90;;;15.61;100.00;101223.16;3485748;40;100500;-84
2021/07/27 03:55:49;;;;;;;3.22;2.42;;;16.80;99.90;;;15.59;100.00;101222.47;3484469;40;103430;-84
2021/07/27 03:58:17;;;;;;;3.10;2.47;;;16.80;99.90;;;15.60;100.00;101210.66;3491159;40;101758;-82
2021/07/27 04:00:44;;;;;;;4.35;2.58;;;16.80;99.90;;;15.74;100.00;101212.69;3486967;40;100571;-83
2021/07/27 04:03:12;;;;;;;5.15;3.28;;;16.80;99.90;;;15.76;100.00;101223.31;3491986;40;100182;-81
2021/07/27 04:05:41;;;;;;;4.65;2.97;;;16.80;99.90;;;15.95;100.00;101214.88;3487185;40;101308;-83
2021/07/27 04:08:08;;;;;;;5.50;3.15;;;16.80;99.90;;;16.18;100.00;101185.31;3482851;40;101180;-82
2021/07/27 04:10:37;;;;;;;6.53;2.78;;;16.90;99.90;;;16.27;100.00;101151.88;3488423;40;102321;-84
2021/07/27 04:13:04;;;;;;;2.83;2.50;;;17.80;99.90;;;16.45;100.00;101130.00;3485790;40;99905;-83
2021/07/27 04:15:42;;;;;;;4.10;2.60;;;17.20;99.90;;;16.58;100.00;101094.31;3483975;40;101976;-83
2021/07/27 04:18:09;;;;;;;7.07;3.00;;;17.00;99.90;;;16.63;100.00;101049.56;3485675;40;100984;-83
2021/07/27 04:20:37;;;;;;;3.50;2.75;;;17.10;99.90;;;16.74;100.00;101021.28;3499878;39;102189;-83
2021/07/27 04:23:04;;;;;;;3.75;2.95;;;17.10;99.90;;;16.94;100.00;101006.25;3499294;40;99130;-81
2021/07/27 04:25:33;;;;;;;3.60;2.67;;;17.20;99.90;;;17.05;100.00;100992.31;3486499;40;101112;-82
2021/07/27 04:28:01;;;;;;;3.75;2.45;;;17.30;99.90;;;17.13;100.00;100967.91;3494450;40;103075;-83
2021/07/27 04:30:28;;;;;;;2.50;2.30;;;17.50;99.90;;;17.30;100.00;100933.41;3493112;40;102484;-84
2021/07/27 04:32:56;;;;;;;3.17;2.33;;;17.50;99.90;;;17.52;100.00;100910.00;3506498;40;100000;-82
2021/07/27 04:35:23;;;;;;;4.88;2.90;;;17.60;99.90;;;17.51;100.00;100870.44;3504246;40;100851;-83
2021/07/27 04:37:53;;;;;;;5.40;3.05;;;17.70;99.90;;;17.69;100.00;100843.81;3503233;40;101111;-83
2021/07/27 04:40:22;;;;;;;3.22;2.70;;;17.70;99.90;;;17.87;100.00;100810.91;3501775;40;100703;-83
2021/07/27 04:42:49;;;;;;;4.93;2.50;;;18.00;99.90;;;18.01;100.00;100769.41;3503855;40;99978;-85
2021/07/27 04:45:18;;;;;;;3.83;2.28;;;18.20;99.90;;;18.13;100.00;100737.22;3501374;40;102687;-83
2021/07/27 04:47:45;;;;;;;3.05;2.10;;;18.20;99.90;;;18.24;100.00;100707.72;3506399;40;101179;-83
2021/07/27 04:50:14;;;;;;;3.20;2.45;;;18.40;99.90;;;18.24;100.00;100677.91;3509033;40;100472;-83
2021/07/27 04:52:49;;;;;;;3.75;2.58;;;18.50;99.90;;;18.25;100.00;100654.38;3504501;40;100128;-82
2021/07/27 04:55:17;;;;;;;3.30;2.10;;;19.30;99.90;;;18.37;100.00;100632.97;3501171;40;101223;-84
2021/07/27 04:57:44;;;;;;;2.90;2.22;;;18.80;99.90;;;18.45;100.00;100598.41;3495583;40;101354;-83
2021/07/27 05:00:23;;;;;;;4.88;2.20;;;18.90;99.90;;;18.69;100.00;100569.97;3496010;39;102302;-83
2021/07/27 05:02:50;;;;;;;3.10;2.22;;;19.00;99.90;;;18.69;100.00;100550.16;3529942;23;103002;-85
2021/07/27 05:05:17;;;;;;;3.17;2.08;;;19.40;99.90;;;18.72;100.00;100518.06;3488021;40;101801;-84
2021/07/27 05:07:46;;;;;;;2.03;1.73;;;19.90;99.90;;;18.92;100.00;100499.94;3488953;40;102938;-83
2021/07/27 05:10:13;;;;;;;2.25;1.70;;;20.40;99.90;;;19.01;100.00;100481.63;3492185;40;100853;-85
2021/07/27 05:12:40;;;;;;;2.30;1.80;;;19.60;99.90;;;19.01;100.00;100462.63;3488899;40;100032;-82
2021/07/27 05:15:08;;;;;;;2.15;1.90;;;19.70;99.90;;;19.00;100.00;100441.97;3481427;40;102733;-85
2021/07/27 05:17:37;;;;;;;3.67;2.03;;;19.80;99.90;;;19.25;100.00;100426.72;3482609;40;101175;-84
2021/07/27 05:20:06;;;;;;;2.30;2.08;;;20.00;99.90;;;19.33;100.00;100418.34;3482040;40;102363;-83
2021/07/27 05:22:34;;;;;;;3.65;1.77;;;20.10;99.90;;;19.40;100.00;100403.97;3479898;40;100150;-82
2021/07/27 05:25:01;;;;;;;2.83;2.35;;;20.20;99.90;;;19.54;100.00;100417.28;3476941;40;101150;-85
2021/07/27 05:27:29;;;;;;;4.97;1.95;;;20.30;99.90;;;19.48;100.00;100422.72;3476024;40;101002;-84
2021/07/27 05:29:56;;;;;;;3.85;1.90;;;20.00;99.90;;;19.52;100.00;100413.13;3480725;40;100497;-83
2021/07/27 05:32:25;;;;;;;5.40;2.20;;;21.20;99.90;;;19.91;100.00;100417.56;3478522;40;100234;-85
2021/07/27 05:34:53;;;;;;;2.63;2.28;;;20.90;99.90;;;19.80;100.00;100404.66;3479749;40;103282;-82
2021/07/27 05:37:21;;;;;;;2.00;1.75;;;20.80;99.90;;;19.96;100.00;100394.16;3484510;40;100473;-83
2021/07/27 05:39:48;;;;;;;2.85;1.88;;;20.90;99.90;;;20.31;100.00;100391.03;3484585;40;100662;-84
2021/07/27 05:42:15;;;;;;;5.05;2.17;;;21.10;99.90;;;20.06;100.00;100369.22;3483707;40;100090;-83
2021/07/27 05:44:42;;;;;;;1.73;1.60;;;21.20;99.90;;;20.35;100.00;100374.09;3479614;40;101367;-82
2021/07/27 05:47:10;;;;;;;3.22;1.90;;;21.30;99.90;;;20.36;100.00;100359.47;3482952;40;103235;-84
2021/07/27 05:49:38;;;;;;;2.85;1.88;;;22.20;99.90;;;20.46;100.00;100356.25;3483846;40;103422;-84
2021/07/27 05:52:11;;;;;;;2.05;1.65;;;21.60;99.90;;;20.40;100.00;100338.94;3480283;40;100221;-82
2021/07/27 05:54:38;;;;;;;3.55;1.60;;;21.70;99.90;;;20.36;100.00;100328.75;3483072;40;102051;-84
2021/07/27 05:57:10;;;;;;;7.32;2.00;;;21.80;99.90;;;20.63;100.00;100332.91;3476106;40;101074;-86
2021/07/27 05:59:37;;;;;;;2.28;1.92;;;21.90;99.90;;;20.47;100.00;100332.63;3472511;40;102509;-83
2021/07/27 06:02:04;;;;;;;3.17;2.20;;;22.00;99.90;;;20.45;100.00;100319.25;3475800;40;100338;-84
2021/07/27 06:04:31;;;;;;;3.10;2.40;;;22.50;99.90;;;20.64;100.00;100315.53;3498525;40;100402;-84
2021/07/27 06:06:58;;;;;;;1.70;1.60;;;22.20;99.90;;;20.63;100.00;100311.16;3485988;40;103532;-83
2021/07/27 06:09:27;;;;;;;3.45;1.85;;;22.20;99.90;;;20.89;100.00;100315.50;3493004;40;100859;-84
2021/07/27 06:11:54;;;;;;;2.08;1.65;;;22.30;99.90;;;20.76;100.00;100400.78;3496976;40;99897;-85
2021/07/27 06:14:21;;;;;;;1.98;1.58;;;22.80;99.90;;;20.90;100.00;100403.34;3486472;39;101966;-86
2021/07/27 06:16:48;;;;;;;3.80;1.48;;;22.50;99.90;;;21.12;100.00;100400.03;3510839;39;100004;-83
2021/07/27 06:19:15;;;;;;;2.92;1.90;;;22.50;99.90;;;21.38;100.00;100384.50;3517195;39;101492;-85
2021/07/27 06:21:42;;;;;;;4.45;2.13;;;22.70;99.90;;;21.54;100.00;100364.84;3504892;40;100135;-83
2021/07/27 06:24:11;;;;;;;5.05;2.03;;;22.80;99.90;;;21.07;100.00;100353.59;3505154;40;101172;-84
2021/07/27 06:26:40;;;;;;;1.60;1.50;;;23.10;99.90;;;20.97;100.00;100347.03;3510273;40;100607;-83
2021/07/27 06:29:08;;;;;;;3.25;1.40;;;23.10;99.90;;;21.10;100.00;100346.88;3502889;40;100516;-84
2021/07/27 06:31:36;;;;;;;1.50;1.25;;;23.60;99.90;;;21.49;100.00;100337.47;3506990;40;100207;-81
2021/07/27 06:34:04;;;;;;;3.92;1.75;;;23.20;99.90;;;21.33;100.00;100319.03;3503018;40;101086;-85
2021/07/27 06:36:31;;;;;;;3.35;1.73;;;23.40;99.90;;;21.49;100.00;100308.38;3500734;40;101591;-82
2021/07/27 06:38:59;;;;;;;2.72;1.50;;;23.40;99.90;;;21.79;100.00;100302.09;3494503;40;100317;-85
2021/07/27 06:41:26;;;;;;;1.67;1.58;;;23.30;99.90;;;21.67;100.00;100277.53;3497784;40;99979;-84
2021/07/27 06:43:54;;;;;;;2.05;1.50;;;23.50;99.90;;;21.95;100.00;100266.03;3484727;40;102928;-84
2021/07/27 06:46:21;;;;;;;2.28;1.73;;;23.70;99.90;;;22.02;100.00;100258.59;3509768;40;100805;-84
2021/07/27 06:48:48;;;;;;;2.40;1.45;;;23.60;99.90;;;22.27;100.00;100241.22;3503604;40;100984;-85
2021/07/27 06:51:17;;;;;;;2.70;1.30;;;24.00;99.90;;;21.85;100.00;100222.19;3506956;40;99986;-84
2021/07/27 06:53:45;;;;;;;1.52;1.40;;;24.60;99.90;;;21.98;100.00;100227.44;3503093;40;100932;-84
2021/07/27 06:56:13;;;;;;;2.13;1.45;;;24.20;99.90;;;22.29;100.00;100230.91;3507125;40;101383;-85
2021/07/27 06:58:43;;;;;;;2.15;1.85;;;24.30;99.90;;;22.16;100.00;100221.91;3493710;40;100842;-83
2021/07/27 07:01:14;;;;;;;1.33;1.23;;;24.50;99.90;;;22.45;100.00;100213.88;3492239;40;100123;-85
2021/07/27 07:03:43;;;;;;;4.07;1.80;;;24.60;99.90;;;22.54;100.00;100199.63;3494698;39;100763;-83
2021/07/27 07:06:11;;;;;;;2.15;1.63;;;24.70;99.90;;;22.85;100.00;100186.69;3504241;39;100251;-84
2021/07/27 07:08:39;;;;;;;3.50;1.90;;;25.70;99.90;;;22.68;100.00;100181.13;3482053;40;101718;-85
2021/07/27 07:11:07;;;;;;;1.92;1.40;;;25.90;98.90;;;22.52;100.00;100181.84;3486740;40;100105;-82
2021/07/27 07:13:35;;;;;;;2.83;1.45;;;25.10;97.70;;;22.49;100.00;100175.00;3496507;40;101175;-85
2021/07/27 07:16:07;;;;;;;1.65;1.55;;;25.40;96.50;;;22.65;100.00;100167.94;3493763;40;101247;-84
2021/07/27 07:18:36;;;;;;;4.18;1.50;;;25.20;96.30;;;23.03;100.00;100177.50;3503413;40;102182;-83
2021/07/27 07:21:05;;;;;;;3.50;1.80;;;26.10;96.30;;;23.15;100.00;100172.81;3495376;40;100489;-84
2021/07/27 07:23:32;;;;;;;1.52;1.40;;;25.70;95.90;;;23.32;100.00;100162.81;3502177;40;100712;-86
2021/07/27 07:26:00;;;;;;;7.38;1.27;;;25.90;95.70;;;23.68;100.00;100164.28;3492350;40;101183;-84
2021/07/27 07:28:27;;;;;;;4.38;1.80;;;25.80;95.60;;;23.81;100.00;100155.78;3488191;40;100472;-83
2021/07/27 07:30:54;;;;;;;5.18;1.20;;;26.00;95.40;;;23.01;100.00;100138.69;3498529;40;100283;-82
2021/07/27 07:33:21;;;;;;;2.38;1.60;;;26.30;94.10;;;23.00;100.00;100153.41;3486420;40;101496;-83
2021/07/27 07:35:49;;;;;;;1.13;1.02;;;26.40;92.80;;;23.43;100.00;100153.72;3492844;40;100887;-83
2021/07/27 07:38:16;;;;;;;1.40;1.30;;;26.60;92.40;;;23.67;100.00;100151.72;3479609;40;102152;-82
2021/07/27 07:40:43;;;;;;;1.83;1.05;;;26.60;91.90;;;23.33;100.00;100147.25;3499229;39;99911;-84
2021/07/27 07:43:10;;;;;;;2.83;1.27;;;27.20;91.50;;;23.48;100.00;100148.38;3499819;40;100843;-82
2021/07/27 07:45:38;;;;;;;1.42;0.98;;;27.00;90.80;;;23.88;100.00;100140.03;3501499;40;101007;-83
2021/07/27 07:48:05;;;;;;;1.40;1.30;;;27.20;90.40;;;23.79;100.00;100129.78;3482161;40;102005;-83
2021/07/27 07:50:32;;;;;;;2.40;1.45;;;27.40;90.00;;;24.11;100.00;100130.03;3489324;40;100221;-86
2021/07/27 07:53:03;;;;;;;1.30;1.08;;;27.60;88.00;;;23.73;100.00;100149.91;3491071;40;101014;-85
2021/07/27 07:55:31;;;;;;;2.83;1.83;;;27.60;85.40;;;24.08;100.00;100138.72;3489399;40;101129;-83
2021/07/27 07:58:00;;;;;;;1.85;1.45;;;28.40;85.40;;;23.98;100.00;100133.94;3499237;40;100801;-83
2021/07/27 08:00:27;;;;;;;1.58;1.25;;;28.50;84.20;;;24.30;100.00;100125.94;3492935;40;100172;-84
2021/07/27 08:02:55;;;;;;;1.20;1.10;;;28.00;82.80;;;24.32;100.00;100113.69;3502580;40;100477;-87
2021/07/27 08:05:23;;;;;;;3.08;1.60;;;28.00;81.60;;;23.78;100.00;100128.13;3501361;40;100641;-85
2021/07/27 08:07:50;;;;;;;1.55;1.30;;;28.10;78.60;;;24.13;100.00;100125.94;3492748;40;100664;-82
2021/07/27 08:10:18;;;;;;;2.50;1.45;;;28.10;78.20;;;24.14;100.00;100121.31;3481334;40;100198;-83
2021/07/27 08:12:47;;;;;;;2.97;1.27;;;28.00;76.90;;;23.94;100.00;100121.84;3488885;40;100714;-83
2021/07/27 08:15:16;;;;;;;1.30;1.20;;;27.90;75.50;;;24.16;100.00;100121.88;3497569;40;100971;-85
2021/07/27 08:17:43;;;;;;;1.98;1.38;;;27.90;76.40;;;24.05;100.00;100129.09;3489143;40;101507;-81
2021/07/27 08:20:12;;;;;;;2.17;1.35;;;27.90;76.40;;;24.51;100.00;100121.56;3503334;39;100048;-83
2021/07/27 08:22:40;;;;;;;3.00;1.60;;;27.80;77.10;;;24.44;100.00;100118.22;3493791;40;101939;-83
2021/07/27 08:25:14;;;;;;;2.00;1.55;;;28.00;76.70;;;24.94;100.00;100102.47;3489128;40;103181;-83
2021/07/27 08:27:43;;;;;;;2.20;1.13;;;28.00;77.60;;;24.82;100.00;100104.47;3487679;40;102243;-81
2021/07/27 08:30:13;;;;;;;2.00;1.27;;;28.00;76.90;;;25.05;100.00;100095.19;3501944;40;100127;-82
2021/07/27 08:32:46;;;;;;;3.22;1.33;;;28.30;76.30;;;25.03;100.00;100095.44;3488829;40;103239;-83
2021/07/27 08:35:14;;;;;;;3.83;1.33;;;28.40;74.00;;;25.11;100.00;100085.09;3497014;40;101394;-83
2021/07/27 08:37:41;;;;;;;0.85;0.80;;;28.50;73.10;;;24.99;100.00;100077.03;3497803;40;100965;-82
2021/07/27 08:40:10;;;;;;;1.67;1.17;;;28.60;70.90;;;24.94;100.00;100075.09;3500075;40;100442;-82
2021/07/27 08:42:41;;;;;;;2.22;1.35;;;28.60;69.20;;;24.78;100.00;100084.16;3500791;40;101376;-83
2021/07/27 08:45:12;;;;;;;2.33;1.30;;;28.40;67.80;;;24.82;100.00;100077.09;3499192;40;102035;-83
2021/07/27 08:47:42;;;;;;;3.20;1.70;;;28.50;68.20;;;24.84;100.00;100085.91;3497112;40;100488;-82
2021/07/27 08:50:10;;;;;;;1.55;1.25;;;28.80;68.20;;;24.83;100.00;100070.56;3487707;40;99996;-81
2021/07/27 08:52:38;;;;;;;2.03;1.10;;;28.40;68.40;;;25.01;100.00;100067.47;3491481;40;101207;-83
2021/07/27 08:55:07;;;;;;;2.35;1.48;;;29.10;69.00;;;25.11;100.00;100064.00;3477490;40;103339;-85
2021/07/27 08:57:34;;;;;;;1.10;1.00;;;28.50;67.50;;;25.30;100.00;100069.97;3482823;40;102445;-83
2021/07/27 09:00:02;;;;;;;1.30;1.20;;;28.90;68.40;;;25.91;100.00;100062.25;3505638;39;100132;-84
2021/07/27 09:02:32;;;;;;;1.90;1.45;;;28.70;68.20;;;26.19;100.00;100063.78;3489341;40;100028;-83
2021/07/27 09:05:08;;;;;;;3.25;1.30;;;28.90;69.00;;;26.16;100.00;100058.84;3479512;40;103768;-82
2021/07/27 09:07:36;;;;;;;2.53;1.35;;;29.10;68.30;;;25.73;100.00;100049.78;3488686;40;100440;-82
2021/07/27 09:10:13;;;;;;;1.63;1.10;;;29.40;65.10;;;25.81;100.00;100051.22;3495228;40;100142;-82
2021/07/27 09:12:52;;;;;;;2.33;1.33;;;29.60;63.70;;;25.46;100.00;100044.38;3487526;40;103087;-83
2021/07/27 09:15:21;;;;;;;3.05;0.93;;;29.50;61.00;;;26.33;100.00;100046.63;3503020;40;101549;-82
2021/07/27 09:17:54;;;;;;;1.42;0.90;;;29.50;62.20;;;26.32;100.00;100044.97;3497968;40;100352;-81
2021/07/27 09:20:30;;;;;;;1.10;0.90;;;29.60;61.40;;;26.32;100.00;100036.75;3492921;40;100080;-83
2021/07/27 09:22:58;;;;;;;5.00;1.15;;;29.70;60.80;;;26.78;100.00;100036.91;3486033;40;101346;-83
2021/07/27 09:25:27;;;;;;;2.95;1.40;;;29.90;60.70;;;26.75;100.00;100037.44;3487930;40;101144;-81
2021/07/27 09:28:09;;;;;;;2.85;1.08;;;30.10;59.80;;;26.24;100.00;100045.44;3486698;40;100423;-83
2021/07/27 09:30:37;;;;;;;1.45;1.17;;;30.20;59.60;;;25.70;100.00;100037.47;3491900;40;99986;-81
2021/07/27 09:33:08;;;;;;;1.25;0.98;;;30.20;57.80;;;25.51;100.00;100044.38;3494887;40;100250;-81
2021/07/27 09:35:37;;;;;;;1.65;1.23;;;30.10;56.50;;;25.50;100.00;100039.16;3486585;40;101380;-83
2021/07/27 09:38:12;;;;;;;4.45;1.70;;;30.00;56.10;;;25.77;100.00;100037.22;3493901;39;100791;-82
2021/07/27 09:40:50;;;;;;;2.00;1.10;;;29.70;56.30;;;25.83;100.00;100043.56;3505095;39;100089;-83
2021/07/27 09:43:19;;;;;;;4.72;1.00;;;29.50;56.80;;;26.06;100.00;100034.94;3499457;40;100896;-80
2021/07/27 09:45:48;;;;;;;1.33;1.23;;;29.00;55.80;;;26.27;100.00;100036.69;3495982;40;101420;-81
2021/07/27 09:48:20;;;;;;;1.85;1.13;;;29.60;55.70;;;25.95;100.00;100025.00;3497579;40;100783;-85
2021/07/27 09:50:49;;;;;;;1.30;1.17;;;29.70;55.10;;;26.17;100.00;100036.63;3480025;40;100195;-82
2021/07/27 09:53:17;;;;;;;7.03;1.30;;;29.60;54.30;;;26.02;100.00;100037.38;3487907;40;100847;-81
2021/07/27 09:55:45;;;;;;;1.48;0.90;;;29.70;53.20;;;25.78;100.00;100044.34;3492753;40;101079;-83
2021/07/27 09:58:13;;;;;;;3.45;1.10;;;29.80;52.10;;;26.46;100.00;100032.38;3487348;40;102674;-83
2021/07/27 10:00:53;;;;;;;2.63;0.80;;;29.60;52.80;;;25.84;100.00;100037.00;3499878;40;100089;-83
2021/07/27 10:03:25;;;;;;;2.75;1.35;;;30.10;52.30;;;26.44;100.00;100037.34;3499966;40;100470;-84
2021/07/27 10:06:00;;;;;;;1.90;1.02;;;29.60;52.90;;;26.08;100.00;100032.75;3479605;40;102830;-81
2021/07/27 10:08:29;;;;;;;2.42;1.00;;;29.70;52.00;;;26.21;100.00;100045.16;3490945;40;101118;-80
2021/07/27 10:11:08;;;;;;;1.17;1.02;;;29.60;52.00;;;26.01;100.00;100032.97;3490581;40;100109;-84
2021/07/27 10:13:37;;;;;;;1.33;0.60;;;29.90;51.90;;;25.91;100.00;100037.59;3489715;39;100723;-81
2021/07/27 10:16:05;;;;;;;2.78;1.08;;;29.30;50.40;;;25.83;100.00;100032.59;3509791;39;101383;-84
2021/07/27 10:18:35;;;;;;;1.70;1.02;;;29.30;51.40;;;25.93;100.00;100032.66;3509405;39;99931;-83
2021/07/27 10:21:24;;;;;;;1.63;0.90;;;29.30;52.60;;;26.22;100.00;100039.38;3497972;40;100330;-84
2021/07/27 10:23:54;;;;;;;1.80;1.38;;;29.30;53.00;;;26.40;100.00;100036.22;3495683;40;101049;-85
2021/07/27 10:26:31;;;;;;;1.20;1.10;;;29.30;52.30;;;27.17;100.00;100031.78;3495349;40;101377;-83